Elche, Spain

7:04 AM CEST on August 30, 2015 (GMT +0200)
Alicante | | Change Station
CLOSE
Current Station
Airport
Location: Alicante,
Elevation: 102 ft
Nearby Weather Stations

Elev 102 ft 38.28 °N, 0.56 °W | Updated 34 minutes ago

Scattered Clouds
Scattered Clouds
77 °F
Feels Like 77 °F
N
4
Wind Variable Wind from West

Today
High -- | Low -- °F
--% Chance of Precip.
Yesterday
High -- | Low -- °F
Precip. -- in
7:29 AM 8:35 PM
Full, 100% visible
Pressure 30.04 in
Visibility 6.2 miles
Clouds Few 1600 ft
Scattered Clouds 3500 ft
Dew Point 66 °F
Humidity 69%
Rainfall 0.00 in
Snow Depth Not available.
UV 0 out of 12
Pollen Not available.
Air Quality Not available.
Flu Activity Not available.
METAR LEAL 300430Z 28003KT 9999 FEW016 SCT035 25/19 Q1017 NOSIG
Pressure 30.04 in
Visibility 6.2 miles
Clouds Few 1600 ft
Scattered Clouds 3500 ft
Dew Point 66 °F
Humidity 69%
Rainfall 0.00 in
Snow Depth Not available.
UV 0 out of 12
Pollen Not available.
Air Quality Not available.
Flu Activity Not available.
METAR LEAL 300430Z 28003KT 9999 FEW016 SCT035 25/19 Q1017 NOSIG

10-Day Weather Forecast

×

Almanac

Astronomy

Aug. 30, 2015 Rise Set
Actual Time
Civil Twilight
Nautical Twilight
Astronomical Twilight
Moon
Length of Visible Light
Length of Day
Tomorrow will be .
, % of the Moon is Illuminated

Today's Extremes

Country Highs Country Lows

Community

WunderPhotos

Upload Photos

1,850,888 photos uploaded!

WunderBlogs® & News

Nearby

Air Quality

  Air Quality AQ Index Pollutant
Not available.

Snow Depth

Station Depth Elevation

Earthquake Activity

City Distance Mag. Time & Date
Minimum magnitude displayed is 2.5.

Coastal Water Temperatures

Place Temperature

Stations

Nearby Weather Stations

Station Location Temp. Windchill Dew Point Humidity Wind Precip. Elev Updated Type